createdAt,value
2019-03-23T00:04:46.330Z,49.90
2019-03-23T00:09:52.861Z,48.20
2019-03-23T00:14:59.849Z,52.10
2019-03-23T00:20:08.405Z,54.47
2019-03-23T00:25:14.832Z,47.93
2019-03-23T00:30:21.943Z,53.03
2019-03-23T00:35:28.817Z,49.70
2019-03-23T00:40:34.839Z,52.43
2019-03-23T00:45:41.344Z,54.20
2019-03-23T00:50:47.951Z,45.70
2019-03-23T00:55:55.780Z,57.30
2019-03-23T01:01:02.323Z,53.27
2019-03-23T01:06:09.206Z,58.53
2019-03-23T01:11:16.062Z,55.80
2019-03-23T01:16:22.968Z,53.83
2019-03-23T01:21:30.934Z,53.70
2019-03-23T01:26:36.853Z,56.77
2019-03-23T01:31:44.813Z,56.13
2019-03-23T01:37:02.450Z,56.80
2019-03-23T01:42:03.069Z,57.70
2019-03-23T01:47:09.906Z,58.67
2019-03-23T01:52:16.337Z,59.30
2019-03-23T01:57:23.261Z,53.93
2019-03-23T02:02:30.391Z,59.17
2019-03-23T02:07:38.980Z,55.10
2019-03-23T02:12:46.269Z,51.07
2019-03-23T02:17:52.725Z,50.83
2019-03-23T02:22:59.296Z,53.97
2019-03-23T02:28:06.055Z,49.20
2019-03-23T02:33:14.017Z,55.73
2019-03-23T02:38:21.003Z,51.00
2019-03-23T02:43:27.823Z,51.40
2019-03-23T02:48:33.792Z,57.63
2019-03-23T02:53:39.768Z,57.73
2019-03-23T02:58:46.712Z,56.17
2019-03-23T03:03:53.246Z,59.70
2019-03-23T03:08:59.715Z,58.53
2019-03-23T03:14:06.215Z,56.97
2019-03-23T03:19:13.191Z,50.30
2019-03-23T03:24:19.860Z,56.47
2019-03-23T03:29:27.294Z,51.50
2019-03-23T03:34:33.369Z,52.17
2019-03-23T03:39:40.375Z,50.93
2019-03-23T03:44:47.309Z,51.30
2019-03-23T03:49:53.844Z,43.77
2019-03-23T03:55:00.523Z,41.63
2019-03-23T04:00:09.995Z,49.00
2019-03-23T04:05:17.928Z,48.00
2019-03-23T04:10:25.009Z,40.33
2019-03-23T04:15:34.021Z,41.93
2019-03-23T04:20:41.615Z,45.30
2019-03-23T04:25:49.939Z,46.57
2019-03-23T04:30:56.798Z,46.13
2019-03-23T04:36:04.530Z,41.23
2019-03-23T04:41:13.552Z,45.37
2019-03-23T04:46:21.164Z,42.53
2019-03-23T04:51:29.433Z,37.80
2019-03-23T04:56:36.845Z,36.90
2019-03-23T05:01:44.005Z,36.77
2019-03-23T05:06:52.022Z,37.53
2019-03-23T05:12:00.164Z,41.53
2019-03-23T05:17:07.920Z,38.93
2019-03-23T05:22:16.181Z,33.90
2019-03-23T05:27:24.447Z,35.70
2019-03-23T05:32:31.802Z,37.60
2019-03-23T05:37:50.360Z,41.37
2019-03-23T05:42:57.536Z,36.60
2019-03-23T05:48:06.388Z,35.57
2019-03-23T05:53:13.307Z,35.97
2019-03-23T05:58:19.832Z,38.63
2019-03-23T06:03:26.744Z,35.73
2019-03-23T06:08:32.798Z,40.67
2019-03-23T06:13:39.702Z,37.77
2019-03-23T06:18:46.252Z,36.37
2019-03-23T06:23:53.548Z,36.37
2019-03-23T06:29:00.684Z,32.37
2019-03-23T06:34:07.491Z,31.87
2019-03-23T06:39:15.388Z,31.13
2019-03-23T06:44:22.339Z,30.83
2019-03-23T06:49:29.940Z,25.33
2019-03-23T06:54:38.060Z,25.63
2019-03-23T06:59:45.261Z,26.60
2019-03-23T07:04:51.930Z,21.37
2019-03-23T07:10:00.324Z,22.40
2019-03-23T07:15:20.084Z,19.37
2019-03-23T07:20:21.229Z,18.40
2019-03-23T07:25:28.132Z,19.30
2019-03-23T07:30:34.275Z,18.43
2019-03-23T07:35:40.990Z,18.67
2019-03-23T07:40:50.029Z,14.13
2019-03-23T07:45:56.945Z,15.37
2019-03-23T07:51:03.644Z,15.53
2019-03-23T07:56:10.967Z,16.33
2019-03-23T08:01:17.971Z,12.87
2019-03-23T08:06:25.348Z,12.30
2019-03-23T08:11:31.464Z,12.77
2019-03-23T08:16:39.723Z,13.33
2019-03-23T08:21:47.154Z,13.27
2019-03-23T08:26:54.331Z,10.83
2019-03-23T08:32:01.337Z,12.63
2019-03-23T08:37:08.321Z,14.50
2019-03-23T08:42:15.354Z,14.87
2019-03-23T08:47:22.154Z,12.47
2019-03-23T08:52:29.102Z,13.07
2019-03-23T08:57:35.182Z,13.07
2019-03-23T09:03:34.640Z,14.03
2019-03-23T09:08:40.827Z,13.00
2019-03-23T09:13:48.022Z,16.17
2019-03-23T09:18:54.760Z,14.87
2019-03-23T09:24:01.672Z,15.40
2019-03-23T09:29:07.783Z,13.23
2019-03-23T09:34:14.934Z,15.57
2019-03-23T09:39:21.660Z,16.13
2019-03-23T09:44:27.789Z,14.40
2019-03-23T09:49:34.043Z,13.87
2019-03-23T09:54:41.234Z,15.73
2019-03-23T09:59:49.473Z,14.97
2019-03-23T10:04:56.619Z,15.13
2019-03-23T10:10:04.596Z,13.93
2019-03-23T10:15:12.482Z,18.73
2019-03-23T10:20:21.424Z,14.97
2019-03-23T10:25:31.860Z,17.20
2019-03-23T10:30:38.467Z,14.43
2019-03-23T10:35:46.676Z,17.33
2019-03-23T10:40:55.741Z,14.43
2019-03-23T10:46:03.248Z,17.97
2019-03-23T10:51:12.869Z,19.27
2019-03-23T10:56:21.035Z,17.93
2019-03-23T11:01:29.613Z,15.47
2019-03-23T11:06:36.817Z,16.27
2019-03-23T11:11:45.500Z,21.33
2019-03-23T11:16:53.554Z,17.57
2019-03-23T11:22:03.259Z,18.37
2019-03-23T11:27:12.875Z,18.77
2019-03-23T11:32:21.413Z,20.77
2019-03-23T11:37:29.874Z,18.13
2019-03-23T11:42:49.374Z,23.63
2019-03-23T11:47:52.013Z,17.97
2019-03-23T11:53:01.835Z,21.03
2019-03-23T11:58:10.119Z,17.43
2019-03-23T12:03:17.546Z,21.00
2019-03-23T12:08:25.396Z,19.03
2019-03-23T12:13:33.314Z,20.37
2019-03-23T12:18:42.262Z,17.60
2019-03-23T12:23:53.389Z,17.33
2019-03-23T12:29:02.002Z,21.93
2019-03-23T12:34:11.509Z,18.67
2019-03-23T12:39:18.830Z,18.40
2019-03-23T12:44:30.331Z,19.20
2019-03-23T12:49:37.898Z,19.20
2019-03-23T12:54:46.537Z,22.60
2019-03-23T12:59:54.487Z,20.30
2019-03-23T13:05:04.528Z,19.10
2019-03-23T13:10:14.238Z,19.10
2019-03-23T13:15:21.278Z,23.37
2019-03-23T13:20:27.442Z,18.63
2019-03-23T13:25:33.646Z,18.83
2019-03-23T13:30:39.717Z,17.40
2019-03-23T13:35:47.930Z,18.23
2019-03-23T13:40:57.121Z,19.43
2019-03-23T13:46:04.182Z,17.63
2019-03-23T13:51:12.544Z,18.40
2019-03-23T13:56:19.764Z,17.57
2019-03-23T14:01:28.481Z,18.27
2019-03-23T14:06:36.085Z,19.43
2019-03-23T14:11:43.313Z,21.03
2019-03-23T14:16:50.383Z,21.30
2019-03-23T14:21:58.191Z,30.60
2019-03-23T14:27:07.706Z,36.87
2019-03-23T14:32:15.050Z,32.83
2019-03-23T14:37:23.586Z,33.30
2019-03-23T14:42:31.717Z,31.33
2019-03-23T14:47:38.026Z,28.87
2019-03-23T14:52:46.034Z,32.60
2019-03-23T14:57:54.774Z,34.30
2019-03-23T15:03:05.464Z,32.53
2019-03-23T15:08:14.450Z,32.73
2019-03-23T15:13:22.100Z,32.47
2019-03-23T15:18:29.773Z,29.77
2019-03-23T15:23:37.294Z,36.97
2019-03-23T15:28:45.466Z,34.30
2019-03-23T15:33:53.846Z,48.00
2019-03-23T15:39:01.001Z,42.67
2019-03-23T15:44:10.398Z,35.13
2019-03-23T15:49:19.802Z,49.13
2019-03-23T15:54:48.022Z,55.60
2019-03-23T15:59:55.395Z,66.80
2019-03-23T16:05:04.506Z,71.67
2019-03-23T16:10:12.420Z,81.10
2019-03-23T16:15:21.298Z,77.03
2019-03-23T16:20:29.616Z,88.03
2019-03-23T16:25:36.906Z,83.27
2019-03-23T16:30:43.726Z,101.30
2019-03-23T16:35:50.488Z,97.60
2019-03-23T16:40:58.835Z,114.43
2019-03-23T16:46:07.118Z,108.47
2019-03-23T16:51:14.834Z,114.07
2019-03-23T16:56:23.314Z,114.37
2019-03-23T17:01:30.421Z,116.60
2019-03-23T17:06:45.975Z,119.73
2019-03-23T17:11:45.720Z,120.67
2019-03-23T17:16:54.879Z,118.47
2019-03-23T17:22:02.773Z,115.07
2019-03-23T17:27:11.692Z,122.93
2019-03-23T17:32:20.787Z,119.30
2019-03-23T17:37:28.564Z,141.77
2019-03-23T17:42:39.688Z,121.07
2019-03-23T17:47:47.305Z,121.30
2019-03-23T17:52:55.193Z,134.30
2019-03-23T17:58:02.724Z,128.23
2019-03-23T18:03:10.210Z,127.73
2019-03-23T18:08:18.934Z,128.53
2019-03-23T18:13:27.191Z,137.70
2019-03-23T18:18:34.998Z,129.43
2019-03-23T18:23:42.441Z,120.90
2019-03-23T18:28:51.218Z,128.13
2019-03-23T18:33:58.958Z,123.93
2019-03-23T18:39:09.105Z,123.40
2019-03-23T18:44:17.309Z,132.03
2019-03-23T18:49:45.322Z,120.47
2019-03-23T18:54:53.702Z,118.57
2019-03-23T19:00:02.966Z,130.83
2019-03-23T19:05:12.839Z,114.70
2019-03-23T19:10:21.055Z,111.17
2019-03-23T19:15:48.970Z,131.40
2019-03-23T19:20:57.645Z,110.17
2019-03-23T19:26:05.756Z,82.70
2019-03-23T19:31:13.757Z,83.83
2019-03-23T19:36:22.436Z,80.50
2019-03-23T19:41:29.584Z,80.07
2019-03-23T19:46:39.808Z,91.20
2019-03-23T19:51:46.878Z,91.10
2019-03-23T19:56:55.346Z,94.03
2019-03-23T20:02:03.350Z,92.37
2019-03-23T20:07:11.181Z,94.47
2019-03-23T20:12:21.125Z,86.73
2019-03-23T20:17:29.332Z,83.63
2019-03-23T20:22:37.755Z,87.07
2019-03-23T20:28:06.840Z,80.63
2019-03-23T20:33:36.870Z,80.40
2019-03-23T20:38:44.850Z,83.73
2019-03-23T20:43:52.287Z,79.57
2019-03-23T20:48:59.752Z,81.70
2019-03-23T20:54:07.848Z,81.53
2019-03-23T20:59:15.413Z,82.33
2019-03-23T21:04:23.621Z,83.37
2019-03-23T21:09:32.265Z,74.67
2019-03-23T21:14:41.677Z,74.67
2019-03-23T21:19:50.959Z,77.67
2019-03-23T21:24:58.645Z,80.73
2019-03-23T21:30:12.558Z,78.90
2019-03-23T21:35:19.589Z,77.20
2019-03-23T21:40:28.708Z,78.97
2019-03-23T21:45:37.054Z,78.80
2019-03-23T21:50:47.720Z,80.27
2019-03-23T21:55:54.078Z,84.87
2019-03-23T22:01:03.985Z,88.93
2019-03-23T22:06:12.215Z,97.93
2019-03-23T22:11:19.227Z,94.83
2019-03-23T22:16:26.029Z,98.73
2019-03-23T22:21:31.978Z,96.00
2019-03-23T22:26:38.559Z,111.63
2019-03-23T22:31:44.643Z,100.60
2019-03-23T22:36:52.165Z,108.57
2019-03-23T22:41:58.952Z,103.70
2019-03-23T22:47:05.825Z,109.77
2019-03-23T22:52:12.615Z,102.13
2019-03-23T22:57:20.856Z,103.77
2019-03-23T23:02:29.120Z,108.87
2019-03-23T23:07:35.135Z,106.23
2019-03-23T23:12:42.082Z,106.03
2019-03-23T23:17:49.023Z,106.23
2019-03-23T23:22:56.377Z,105.53
2019-03-23T23:28:05.165Z,105.43
2019-03-23T23:33:12.036Z,111.77
2019-03-23T23:38:21.112Z,114.10
2019-03-23T23:43:28.921Z,106.37
2019-03-23T23:48:36.032Z,107.77
2019-03-23T23:53:42.821Z,118.67
2019-03-23T23:58:48.988Z,103.37
